createdAt,value
2019-02-14T00:00:59.116Z,1022.3
2019-02-14T00:02:00.782Z,1022.3
2019-02-14T00:03:02.669Z,1022.3
2019-02-14T00:04:04.910Z,1022.3
2019-02-14T00:05:06.573Z,1022.3
2019-02-14T00:06:08.296Z,1022.2
2019-02-14T00:07:10.064Z,1022.3
2019-02-14T00:08:11.749Z,1022.3
2019-02-14T00:09:13.529Z,1022.3
2019-02-14T00:10:15.164Z,1022.2
2019-02-14T00:11:16.786Z,1022.3
2019-02-14T00:12:18.485Z,1022.3
2019-02-14T00:13:20.243Z,1022.3
2019-02-14T00:14:21.843Z,1022.3
2019-02-14T00:15:23.612Z,1022.3
2019-02-14T00:16:25.306Z,1022.3
2019-02-14T00:17:27.139Z,1022.3
2019-02-14T00:18:28.708Z,1022.3
2019-02-14T00:19:30.414Z,1022.3
2019-02-14T00:20:32.176Z,1022.3
2019-02-14T00:21:33.981Z,1022.3
2019-02-14T00:22:35.737Z,1022.3
2019-02-14T00:23:37.457Z,1022.3
2019-02-14T00:24:39.479Z,1022.3
2019-02-14T00:25:41.311Z,1022.3
2019-02-14T00:26:43.197Z,1022.3
2019-02-14T00:27:44.954Z,1022.3
2019-02-14T00:28:46.648Z,1022.3
2019-02-14T00:29:48.204Z,1022.3
2019-02-14T00:30:49.894Z,1022.3
2019-02-14T00:31:51.598Z,1022.2
2019-02-14T00:32:53.318Z,1022.2
2019-02-14T00:33:55.153Z,1022.1
2019-02-14T00:34:56.625Z,1022.2
2019-02-14T00:35:58.479Z,1022.2
2019-02-14T00:37:00.061Z,1022.2
2019-02-14T00:38:01.819Z,1022.1
2019-02-14T00:39:03.440Z,1022.1
2019-02-14T00:40:05.864Z,1022.1
2019-02-14T00:41:07.537Z,1022.1
2019-02-14T00:42:09.209Z,1022.1
2019-02-14T00:43:10.785Z,1022.1
2019-02-14T00:44:12.472Z,1022.1
2019-02-14T00:45:14.084Z,1022.1
2019-02-14T00:46:15.850Z,1022.1
2019-02-14T00:47:17.550Z,1022.1
2019-02-14T00:48:19.202Z,1022.1
2019-02-14T00:49:20.993Z,1022.1
2019-02-14T00:50:22.813Z,1022.1
2019-02-14T00:51:24.654Z,1022.1
2019-02-14T00:52:26.282Z,1022.1
2019-02-14T00:53:28.158Z,1022.1
2019-02-14T00:54:29.855Z,1022.1
2019-02-14T00:55:31.594Z,1022.0
2019-02-14T00:56:33.105Z,1022.0
2019-02-14T00:57:34.735Z,1022.0
2019-02-14T00:58:36.535Z,1022.0
2019-02-14T00:59:38.179Z,1022.0
2019-02-14T01:00:39.879Z,1022.0
2019-02-14T01:01:41.669Z,1022.0
2019-02-14T01:02:43.167Z,1022.0
2019-02-14T01:03:44.741Z,1022.0
2019-02-14T01:04:46.495Z,1022.0
2019-02-14T01:05:48.068Z,1021.9
2019-02-14T01:06:49.857Z,1021.9
2019-02-14T01:07:51.501Z,1022.0
2019-02-14T01:08:53.127Z,1022.0
2019-02-14T01:09:54.863Z,1022.0
2019-02-14T01:10:56.351Z,1022.0
2019-02-14T01:11:58.200Z,1022.0
2019-02-14T01:12:59.909Z,1022.0
2019-02-14T01:14:01.464Z,1022.0
2019-02-14T01:15:03.092Z,1022.0
2019-02-14T01:16:04.902Z,1022.0
2019-02-14T01:17:06.440Z,1021.9
2019-02-14T01:18:08.214Z,1021.9
2019-02-14T01:19:09.971Z,1021.9
2019-02-14T01:20:11.599Z,1022.0
2019-02-14T01:21:13.388Z,1022.0
2019-02-14T01:22:15.129Z,1022.1
2019-02-14T01:23:16.702Z,1022.0
2019-02-14T01:24:18.393Z,1022.0
2019-02-14T01:25:20.097Z,1022.0
2019-02-14T01:26:21.767Z,1022.0
2019-02-14T01:27:23.417Z,1022.0
2019-02-14T01:28:25.154Z,1022.0
2019-02-14T01:29:26.902Z,1022.0
2019-02-14T01:30:28.657Z,1022.0
2019-02-14T01:31:30.483Z,1022.0
2019-02-14T01:32:32.178Z,1022.0
2019-02-14T01:33:33.903Z,1022.0
2019-02-14T01:34:36.377Z,1022.0
2019-02-14T01:35:41.947Z,1022.0
2019-02-14T01:36:39.926Z,1022.1
2019-02-14T01:37:41.699Z,1022.1
2019-02-14T01:38:43.399Z,1022.1
2019-02-14T01:39:45.056Z,1022.1
2019-02-14T01:40:46.799Z,1022.1
2019-02-14T01:41:48.643Z,1022.1
2019-02-14T01:42:50.721Z,1022.1
2019-02-14T01:43:52.400Z,1022.2
2019-02-14T01:44:54.170Z,1022.2
2019-02-14T01:45:55.902Z,1022.2
2019-02-14T01:46:57.578Z,1022.1
2019-02-14T01:47:59.553Z,1022.1
2019-02-14T01:49:01.292Z,1022.1
2019-02-14T01:50:03.101Z,1022.1
2019-02-14T01:51:04.867Z,1022.1
2019-02-14T01:52:06.521Z,1022.1
2019-02-14T01:53:08.180Z,1022.2
2019-02-14T01:54:09.938Z,1022.2
2019-02-14T01:55:11.567Z,1022.1
2019-02-14T01:56:13.255Z,1022.1
2019-02-14T01:57:14.887Z,1022.2
2019-02-14T01:58:16.657Z,1022.2
2019-02-14T01:59:18.140Z,1022.1
2019-02-14T02:00:19.521Z,1022.2
2019-02-14T02:01:20.919Z,1022.2
2019-02-14T02:02:22.335Z,1022.1
2019-02-14T02:03:24.638Z,1022.1
2019-02-14T02:04:26.031Z,1022.1
2019-02-14T02:05:27.429Z,1022.2
2019-02-14T02:06:28.843Z,1022.1
2019-02-14T02:07:30.239Z,1022.1
2019-02-14T02:08:31.668Z,1022.1
2019-02-14T02:09:33.339Z,1022.1
2019-02-14T02:10:35.167Z,1022.1
2019-02-14T02:11:36.844Z,1022.1
2019-02-14T02:12:38.473Z,1022.1
2019-02-14T02:13:40.067Z,1022.1
2019-02-14T02:14:41.691Z,1022.1
2019-02-14T02:15:43.598Z,1022.1
2019-02-14T02:16:45.355Z,1022.0
2019-02-14T02:17:47.055Z,1022.1
2019-02-14T02:18:48.941Z,1022.1
2019-02-14T02:19:50.585Z,1022.1
2019-02-14T02:20:52.380Z,1022.1
2019-02-14T02:21:54.110Z,1022.1
2019-02-14T02:22:55.847Z,1022.1
2019-02-14T02:23:57.561Z,1022.1
2019-02-14T02:24:59.332Z,1022.1
2019-02-14T02:26:01.202Z,1022.1
2019-02-14T02:27:02.842Z,1022.1
2019-02-14T02:28:04.510Z,1022.1
2019-02-14T02:29:06.119Z,1022.0
2019-02-14T02:30:07.730Z,1022.0
2019-02-14T02:31:09.468Z,1022.1
2019-02-14T02:32:11.335Z,1022.0
2019-02-14T02:33:13.032Z,1022.0
2019-02-14T02:34:15.029Z,1022.0
2019-02-14T02:35:18.600Z,1022.1
2019-02-14T02:36:20.220Z,1022.2
2019-02-14T02:37:22.033Z,1022.1
2019-02-14T02:38:23.689Z,1022.1
2019-02-14T02:39:25.551Z,1022.1
2019-02-14T02:40:27.212Z,1022.1
2019-02-14T02:41:28.872Z,1022.1
2019-02-14T02:42:30.531Z,1022.1
2019-02-14T02:43:32.195Z,1022.1
2019-02-14T02:44:33.862Z,1022.1
2019-02-14T02:45:35.935Z,1022.1
2019-02-14T02:46:37.661Z,1022.1
2019-02-14T02:47:39.258Z,1022.1
2019-02-14T02:48:40.985Z,1022.1
2019-02-14T02:49:42.797Z,1022.1
2019-02-14T02:50:44.716Z,1022.0
2019-02-14T02:51:46.328Z,1022.0
2019-02-14T02:52:47.895Z,1022.0
2019-02-14T02:53:49.654Z,1022.1
2019-02-14T02:54:51.288Z,1022.1
2019-02-14T02:55:53.048Z,1022.1
2019-02-14T02:56:54.602Z,1022.1
2019-02-14T02:57:56.281Z,1022.1
2019-02-14T02:58:57.961Z,1022.0
2019-02-14T02:59:59.627Z,1022.0
2019-02-14T03:01:01.263Z,1022.0
2019-02-14T03:02:02.934Z,1022.0
2019-02-14T03:03:04.605Z,1022.0
2019-02-14T03:04:06.332Z,1022.0
2019-02-14T03:05:07.922Z,1022.0
2019-02-14T03:06:10.911Z,1022.0
2019-02-14T03:07:12.422Z,1021.9
2019-02-14T03:08:14.280Z,1021.9
2019-02-14T03:09:16.216Z,1021.9
2019-02-14T03:10:17.852Z,1022.0
2019-02-14T03:11:19.562Z,1022.0
2019-02-14T03:12:21.274Z,1022.1
2019-02-14T03:13:23.052Z,1022.0
2019-02-14T03:14:24.758Z,1022.0
2019-02-14T03:15:26.516Z,1022.0
2019-02-14T03:16:28.452Z,1022.0
2019-02-14T03:17:30.233Z,1022.0
2019-02-14T03:18:32.162Z,1022.0
2019-02-14T03:19:33.658Z,1022.0
2019-02-14T03:20:35.457Z,1022.0
2019-02-14T03:21:37.205Z,1022.0
2019-02-14T03:22:38.891Z,1021.9
2019-02-14T03:23:40.576Z,1021.9
2019-02-14T03:24:42.851Z,1021.9
2019-02-14T03:25:44.502Z,1021.9
2019-02-14T03:26:46.178Z,1022.0
2019-02-14T03:27:47.872Z,1022.0
2019-02-14T03:28:49.477Z,1022.0
2019-02-14T03:29:51.170Z,1022.0
2019-02-14T03:30:52.919Z,1022.1
2019-02-14T03:31:54.726Z,1022.0
2019-02-14T03:32:56.575Z,1022.0
2019-02-14T03:33:58.346Z,1022.0
2019-02-14T03:35:00.003Z,1022.0
2019-02-14T03:36:01.600Z,1022.0
2019-02-14T03:37:03.389Z,1021.9
2019-02-14T03:38:05.175Z,1021.9
2019-02-14T03:39:06.887Z,1022.0
2019-02-14T03:40:08.532Z,1021.9
2019-02-14T03:41:10.327Z,1022.0
2019-02-14T03:42:12.187Z,1022.0
2019-02-14T03:43:13.835Z,1022.0
2019-02-14T03:44:15.578Z,1022.0
2019-02-14T03:45:17.401Z,1022.0
2019-02-14T03:46:19.357Z,1022.0
2019-02-14T03:47:21.089Z,1022.0
2019-02-14T03:48:22.709Z,1021.9
2019-02-14T03:49:24.448Z,1022.0
2019-02-14T03:50:26.262Z,1022.0
2019-02-14T03:51:27.863Z,1022.0
2019-02-14T03:52:29.609Z,1022.0
2019-02-14T03:53:31.309Z,1022.0
2019-02-14T03:54:33.059Z,1022.0
2019-02-14T03:55:34.880Z,1022.1
2019-02-14T03:56:36.696Z,1022.1
2019-02-14T03:57:38.590Z,1022.0
2019-02-14T03:58:40.410Z,1022.0
2019-02-14T03:59:42.059Z,1022.0
2019-02-14T04:00:43.742Z,1022.0
2019-02-14T04:01:45.434Z,1022.0
2019-02-14T04:02:47.428Z,1021.9
2019-02-14T04:03:49.069Z,1022.0
2019-02-14T04:04:50.873Z,1022.0
2019-02-14T04:05:52.645Z,1022.0
2019-02-14T04:06:54.272Z,1022.0
2019-02-14T04:07:56.089Z,1022.0
2019-02-14T04:08:57.904Z,1022.0
2019-02-14T04:09:59.684Z,1022.1
2019-02-14T04:11:01.316Z,1022.1
2019-02-14T04:12:04.191Z,1022.0
2019-02-14T04:13:05.889Z,1022.1
2019-02-14T04:14:07.710Z,1022.1
2019-02-14T04:15:10.544Z,1022.1
2019-02-14T04:16:13.132Z,1022.1
2019-02-14T04:17:15.069Z,1022.1
2019-02-14T04:18:16.709Z,1022.1
2019-02-14T04:19:18.568Z,1022.1
2019-02-14T04:20:20.231Z,1022.1
2019-02-14T04:21:22.152Z,1022.1
2019-02-14T04:22:23.775Z,1022.1
2019-02-14T04:23:25.647Z,1022.1
2019-02-14T04:24:27.506Z,1022.1
2019-02-14T04:25:29.305Z,1022.1
2019-02-14T04:26:31.062Z,1022.1
2019-02-14T04:27:32.769Z,1022.1
2019-02-14T04:28:34.473Z,1022.1
2019-02-14T04:29:36.223Z,1022.1
2019-02-14T04:30:37.974Z,1022.1
2019-02-14T04:31:39.799Z,1022.1
2019-02-14T04:32:41.614Z,1022.1
2019-02-14T04:33:43.313Z,1022.2
2019-02-14T04:34:44.888Z,1022.1
2019-02-14T04:35:46.566Z,1022.1
2019-02-14T04:36:48.294Z,1022.1
2019-02-14T04:37:49.862Z,1022.2
2019-02-14T04:38:51.744Z,1022.1
2019-02-14T04:39:53.624Z,1022.1
2019-02-14T04:40:55.436Z,1022.2
2019-02-14T04:41:57.189Z,1022.2
2019-02-14T04:42:59.510Z,1022.2
2019-02-14T04:44:01.413Z,1022.2
2019-02-14T04:45:03.138Z,1022.2
2019-02-14T04:46:04.762Z,1022.3
2019-02-14T04:47:06.551Z,1022.3
2019-02-14T04:48:08.227Z,1022.3
2019-02-14T04:49:09.914Z,1022.3
2019-02-14T04:50:11.597Z,1022.2
2019-02-14T04:51:13.949Z,1022.2
2019-02-14T04:52:15.591Z,1022.2
2019-02-14T04:53:17.046Z,1022.2
2019-02-14T04:54:18.626Z,1022.2
2019-02-14T04:55:20.036Z,1022.2
2019-02-14T04:56:21.444Z,1022.2
2019-02-14T04:57:22.853Z,1022.2
2019-02-14T04:58:24.243Z,1022.2
2019-02-14T04:59:25.652Z,1022.1
2019-02-14T05:00:27.075Z,1022.2
2019-02-14T05:01:28.564Z,1022.2
2019-02-14T05:02:30.008Z,1022.2
2019-02-14T05:03:31.400Z,1022.2
2019-02-14T05:04:32.824Z,1022.2
2019-02-14T05:05:34.254Z,1022.2
2019-02-14T05:06:43.958Z,1022.2
2019-02-14T05:07:36.996Z,1022.2
2019-02-14T05:08:38.427Z,1022.3
2019-02-14T05:09:39.818Z,1022.2
2019-02-14T05:10:41.211Z,1022.3
2019-02-14T05:11:42.643Z,1022.3
2019-02-14T05:12:44.058Z,1022.3
2019-02-14T05:13:45.444Z,1022.3
2019-02-14T05:14:46.822Z,1022.3
2019-02-14T05:15:48.209Z,1022.4
2019-02-14T05:16:49.645Z,1022.3
2019-02-14T05:17:51.043Z,1022.3
2019-02-14T05:18:52.657Z,1022.3
2019-02-14T05:19:54.464Z,1022.3
2019-02-14T05:20:56.189Z,1022.3
2019-02-14T05:22:00.000Z,1022.3
2019-02-14T05:23:01.758Z,1022.3
2019-02-14T05:24:03.601Z,1022.2
2019-02-14T05:25:05.361Z,1022.3
2019-02-14T05:26:07.358Z,1022.2
2019-02-14T05:27:09.109Z,1022.2
2019-02-14T05:28:10.802Z,1022.2
2019-02-14T05:29:12.648Z,1022.2
2019-02-14T05:30:14.448Z,1022.2
2019-02-14T05:31:16.339Z,1022.2
2019-02-14T05:32:18.256Z,1022.2
2019-02-14T05:33:19.763Z,1022.2
2019-02-14T05:34:21.718Z,1022.3
2019-02-14T05:35:23.605Z,1022.2
2019-02-14T05:36:25.399Z,1022.3
2019-02-14T05:37:27.028Z,1022.2
2019-02-14T05:38:29.493Z,1022.3
2019-02-14T05:39:31.395Z,1022.3
2019-02-14T05:40:34.997Z,1022.4
2019-02-14T05:41:37.439Z,1022.3
2019-02-14T05:42:39.289Z,1022.4
2019-02-14T05:43:41.110Z,1022.4
2019-02-14T05:44:43.247Z,1022.4
2019-02-14T05:45:45.145Z,1022.4
2019-02-14T05:46:47.068Z,1022.3
2019-02-14T05:47:48.896Z,1022.3
2019-02-14T05:48:50.779Z,1022.3
2019-02-14T05:49:52.762Z,1022.3
2019-02-14T05:50:55.012Z,1022.2
2019-02-14T05:51:59.512Z,1022.3
2019-02-14T05:53:01.510Z,1022.3
2019-02-14T05:54:03.401Z,1022.3
2019-02-14T05:55:05.255Z,1022.3
2019-02-14T05:56:07.005Z,1022.3
2019-02-14T05:57:08.833Z,1022.3
2019-02-14T05:58:10.639Z,1022.3
2019-02-14T05:59:12.508Z,1022.3
2019-02-14T06:00:14.441Z,1022.3
2019-02-14T06:01:16.333Z,1022.3
2019-02-14T06:02:19.041Z,1022.3
2019-02-14T06:03:20.869Z,1022.3
2019-02-14T06:04:22.431Z,1022.3
2019-02-14T06:05:24.242Z,1022.4
2019-02-14T06:06:25.852Z,1022.3
2019-02-14T06:07:27.716Z,1022.4
2019-02-14T06:08:29.577Z,1022.4
2019-02-14T06:09:31.610Z,1022.4
2019-02-14T06:10:33.662Z,1022.3
2019-02-14T06:11:35.613Z,1022.4
2019-02-14T06:12:37.516Z,1022.4
2019-02-14T06:13:39.486Z,1022.4
2019-02-14T06:14:41.221Z,1022.4
2019-02-14T06:15:42.989Z,1022.5
2019-02-14T06:16:44.676Z,1022.5
2019-02-14T06:17:46.315Z,1022.5
2019-02-14T06:18:48.956Z,1022.5
2019-02-14T06:19:50.552Z,1022.5
2019-02-14T06:20:52.580Z,1022.6
2019-02-14T06:21:54.343Z,1022.6
2019-02-14T06:22:57.027Z,1022.6
2019-02-14T06:23:58.702Z,1022.6
2019-02-14T06:25:01.027Z,1022.5
2019-02-14T06:26:02.841Z,1022.6
2019-02-14T06:27:04.519Z,1022.6
2019-02-14T06:28:06.048Z,1022.6
2019-02-14T06:29:08.192Z,1022.6
2019-02-14T06:30:09.919Z,1022.7
2019-02-14T06:31:11.618Z,1022.7
2019-02-14T06:32:13.321Z,1022.7
2019-02-14T06:33:14.972Z,1022.6
2019-02-14T06:34:16.539Z,1022.7
2019-02-14T06:35:18.188Z,1022.6
2019-02-14T06:36:20.246Z,1022.6
2019-02-14T06:37:21.936Z,1022.7
2019-02-14T06:38:23.893Z,1022.7
2019-02-14T06:39:25.699Z,1022.7
2019-02-14T06:40:27.508Z,1022.6
2019-02-14T06:41:28.992Z,1022.6
2019-02-14T06:42:31.537Z,1022.6
2019-02-14T06:43:33.176Z,1022.6
2019-02-14T06:44:35.077Z,1022.6
2019-02-14T06:45:36.664Z,1022.6
2019-02-14T06:46:38.336Z,1022.7
2019-02-14T06:47:39.989Z,1022.7
2019-02-14T06:48:41.627Z,1022.6
2019-02-14T06:49:43.418Z,1022.7
2019-02-14T06:50:45.104Z,1022.6
2019-02-14T06:51:46.811Z,1022.7
2019-02-14T06:52:48.480Z,1022.7
2019-02-14T06:53:50.137Z,1022.7
2019-02-14T06:54:52.052Z,1022.7
2019-02-14T06:55:53.658Z,1022.7
2019-02-14T06:56:55.785Z,1022.7
2019-02-14T06:57:57.396Z,1022.7
2019-02-14T06:58:59.271Z,1022.7
2019-02-14T07:00:01.051Z,1022.8
2019-02-14T07:01:02.759Z,1022.8
2019-02-14T07:02:06.236Z,1022.7
2019-02-14T07:31:09.906Z,1023.0
2019-02-14T07:32:11.456Z,1023.0
2019-02-14T07:33:12.920Z,1023.0
2019-02-14T07:34:14.372Z,1023.0
2019-02-14T07:35:15.790Z,1023.1
2019-02-14T07:36:17.226Z,1023.1
2019-02-14T07:37:26.392Z,1023.0
2019-02-14T07:38:19.993Z,1023.1
2019-02-14T07:39:21.625Z,1023.1
2019-02-14T07:40:23.224Z,1023.2
2019-02-14T07:41:24.926Z,1023.2
2019-02-14T07:42:26.590Z,1023.2
2019-02-14T07:43:28.189Z,1023.2
2019-02-14T07:44:29.606Z,1023.2
2019-02-14T07:45:31.082Z,1023.2
2019-02-14T07:46:32.479Z,1023.2
2019-02-14T07:47:33.895Z,1023.2
2019-02-14T07:48:35.318Z,1023.2
2019-02-14T07:49:36.763Z,1023.2
2019-02-14T07:50:38.163Z,1023.2
2019-02-14T07:51:39.594Z,1023.1
2019-02-14T07:52:41.091Z,1023.1
2019-02-14T07:53:42.588Z,1023.1
2019-02-14T07:54:44.097Z,1023.1
2019-02-14T07:55:45.673Z,1023.1
2019-02-14T07:56:47.224Z,1023.1
2019-02-14T07:57:48.938Z,1023.1
2019-02-14T07:58:51.172Z,1023.1
2019-02-14T07:59:53.013Z,1023.2
2019-02-14T08:00:55.148Z,1023.2
2019-02-14T08:01:57.156Z,1023.2
2019-02-14T08:02:59.341Z,1023.2
2019-02-14T08:04:01.287Z,1023.2
2019-02-14T08:05:03.534Z,1023.2
2019-02-14T08:06:05.510Z,1023.2
2019-02-14T08:07:07.626Z,1023.2
2019-02-14T08:08:09.674Z,1023.2
2019-02-14T08:09:11.558Z,1023.2
2019-02-14T08:10:13.395Z,1023.3
2019-02-14T08:11:15.390Z,1023.3
2019-02-14T08:12:17.195Z,1023.3
2019-02-14T08:13:19.091Z,1023.3
2019-02-14T08:14:20.965Z,1023.3
2019-02-14T08:15:23.051Z,1023.2
2019-02-14T08:16:24.916Z,1023.3
2019-02-14T08:17:26.881Z,1023.3
2019-02-14T08:18:29.836Z,1023.3
2019-02-14T08:19:31.737Z,1023.3
2019-02-14T08:20:33.965Z,1023.2
2019-02-14T08:21:36.796Z,1023.2
2019-02-14T08:22:38.940Z,1023.2
2019-02-14T08:23:40.875Z,1023.2
2019-02-14T08:24:43.930Z,1023.2
2019-02-14T08:25:45.916Z,1023.2
2019-02-14T08:26:47.729Z,1023.2
2019-02-14T08:27:50.357Z,1023.2
2019-02-14T08:28:52.624Z,1023.1
2019-02-14T08:29:54.757Z,1023.2
2019-02-14T08:30:56.780Z,1023.2
2019-02-14T08:31:58.714Z,1023.2
2019-02-14T08:33:00.806Z,1023.2
2019-02-14T08:34:03.472Z,1023.1
2019-02-14T08:35:06.525Z,1023.1
2019-02-14T08:36:07.660Z,1023.1
2019-02-14T08:37:09.461Z,1023.1
2019-02-14T08:38:11.676Z,1023.1
2019-02-14T08:39:13.781Z,1023.1
2019-02-14T08:40:15.900Z,1023.1
2019-02-14T08:41:18.170Z,1023.1
2019-02-14T08:42:20.139Z,1023.1
2019-02-14T08:43:22.215Z,1023.1
2019-02-14T08:44:24.775Z,1023.1
2019-02-14T08:45:26.891Z,1023.1
2019-02-14T08:46:29.134Z,1023.1
2019-02-14T08:47:31.036Z,1023.0
2019-02-14T08:48:33.046Z,1023.0
2019-02-14T08:49:35.232Z,1023.1
2019-02-14T08:50:36.520Z,1023.0
2019-02-14T08:51:38.766Z,1023.0
2019-02-14T08:52:40.560Z,1023.0
2019-02-14T08:53:42.588Z,1023.0
2019-02-14T08:54:44.542Z,1023.0
2019-02-14T08:55:46.372Z,1023.0
2019-02-14T08:56:48.563Z,1023.1
2019-02-14T08:57:51.426Z,1023.0
2019-02-14T08:58:53.279Z,1023.1
2019-02-14T08:59:55.155Z,1023.1
2019-02-14T09:00:57.216Z,1023.0
2019-02-14T09:01:59.146Z,1023.1
2019-02-14T09:03:00.833Z,1023.1
2019-02-14T09:04:02.730Z,1023.0
2019-02-14T09:05:04.899Z,1023.1
2019-02-14T09:06:07.038Z,1023.0
2019-02-14T09:07:09.007Z,1023.0
2019-02-14T09:08:11.136Z,1022.9
2019-02-14T09:09:13.085Z,1022.9
2019-02-14T09:10:14.993Z,1022.9
2019-02-14T09:11:16.879Z,1022.9
2019-02-14T09:12:19.074Z,1022.9
2019-02-14T09:13:21.237Z,1022.9
2019-02-14T09:14:23.291Z,1022.9
2019-02-14T09:15:25.222Z,1022.9
2019-02-14T09:16:27.097Z,1022.9
2019-02-14T09:17:29.346Z,1023.0
2019-02-14T09:18:31.383Z,1023.0
2019-02-14T09:19:33.350Z,1022.9
2019-02-14T09:20:35.416Z,1023.0
2019-02-14T09:21:37.441Z,1023.0
2019-02-14T09:22:39.409Z,1023.0
2019-02-14T09:23:41.391Z,1023.1
2019-02-14T09:24:43.372Z,1023.0
2019-02-14T09:25:45.118Z,1023.0
2019-02-14T09:26:46.999Z,1023.1
2019-02-14T09:27:48.790Z,1023.1
2019-02-14T09:28:50.443Z,1023.1
2019-02-14T09:29:52.354Z,1023.0
2019-02-14T09:30:54.171Z,1023.1
2019-02-14T09:31:56.086Z,1023.0
2019-02-14T09:32:58.024Z,1023.1
2019-02-14T09:33:59.766Z,1023.0
2019-02-14T09:35:01.562Z,1023.0
2019-02-14T09:36:03.470Z,1023.0
2019-02-14T09:37:05.295Z,1023.0
2019-02-14T09:38:07.098Z,1022.9
2019-02-14T09:39:08.863Z,1022.9
2019-02-14T09:40:10.750Z,1023.0
2019-02-14T09:41:12.667Z,1023.0
2019-02-14T09:42:14.419Z,1023.0
2019-02-14T09:43:16.257Z,1023.0
2019-02-14T09:44:18.222Z,1023.0
2019-02-14T09:45:20.221Z,1023.0
2019-02-14T09:46:21.937Z,1023.0
2019-02-14T09:47:24.042Z,1023.0
2019-02-14T09:48:25.887Z,1023.1
2019-02-14T09:49:27.695Z,1023.1
2019-02-14T09:50:29.388Z,1023.1
2019-02-14T09:51:31.282Z,1023.0
2019-02-14T09:52:33.017Z,1023.0
2019-02-14T09:53:34.788Z,1023.0
2019-02-14T09:54:38.211Z,1023.0
2019-02-14T09:55:38.312Z,1023.0
2019-02-14T09:56:39.956Z,1023.0
2019-02-14T09:57:41.588Z,1023.0
2019-02-14T09:58:43.230Z,1023.0
2019-02-14T09:59:44.982Z,1023.0
2019-02-14T10:00:46.825Z,1023.1
2019-02-14T10:01:48.551Z,1023.1
2019-02-14T10:02:50.299Z,1023.1
2019-02-14T10:03:52.298Z,1023.2
2019-02-14T10:04:54.090Z,1023.2
2019-02-14T10:05:55.816Z,1023.2
2019-02-14T10:06:57.490Z,1023.2
2019-02-14T10:07:59.110Z,1023.2
2019-02-14T10:09:00.923Z,1023.2
2019-02-14T10:10:02.514Z,1023.1
2019-02-14T10:11:04.306Z,1023.2
2019-02-14T10:12:06.119Z,1023.2
2019-02-14T10:13:07.985Z,1023.2
2019-02-14T10:14:09.799Z,1023.1
2019-02-14T10:15:11.467Z,1023.2
2019-02-14T10:16:13.047Z,1023.2
2019-02-14T10:17:22.074Z,1023.2
2019-02-14T10:18:16.392Z,1023.1
2019-02-14T10:19:19.063Z,1023.1
2019-02-14T10:20:20.689Z,1023.1
2019-02-14T10:21:22.408Z,1023.1
2019-02-14T10:22:24.164Z,1023.0
2019-02-14T10:23:25.864Z,1023.0
2019-02-14T10:24:27.552Z,1023.1
2019-02-14T10:25:29.142Z,1023.0
2019-02-14T10:26:30.825Z,1023.0
2019-02-14T10:27:32.497Z,1023.0
2019-02-14T10:28:34.288Z,1023.0
2019-02-14T10:29:36.112Z,1023.1
2019-02-14T10:30:40.105Z,1023.0
2019-02-14T10:31:39.745Z,1023.1
2019-02-14T10:32:41.440Z,1023.0
2019-02-14T10:33:43.146Z,1023.1
2019-02-14T10:34:45.026Z,1023.1
2019-02-14T10:35:46.835Z,1023.1
2019-02-14T10:36:48.505Z,1023.2
2019-02-14T10:37:50.140Z,1023.2
2019-02-14T10:38:51.674Z,1023.2
2019-02-14T10:39:53.346Z,1023.1
2019-02-14T10:40:55.122Z,1023.2
2019-02-14T10:41:56.747Z,1023.2
2019-02-14T10:42:58.410Z,1023.2
2019-02-14T10:44:00.070Z,1023.2
2019-02-14T10:45:01.737Z,1023.2
2019-02-14T10:46:03.256Z,1023.2
2019-02-14T10:47:04.866Z,1023.2
2019-02-14T10:48:06.450Z,1023.1
2019-02-14T10:49:08.004Z,1023.1
2019-02-14T10:50:10.466Z,1023.1
2019-02-14T10:51:12.064Z,1023.0
2019-02-14T10:52:13.687Z,1023.0
2019-02-14T10:53:15.229Z,1023.0
2019-02-14T10:54:16.841Z,1023.0
2019-02-14T10:55:18.393Z,1023.1
2019-02-14T10:56:19.978Z,1023.1
2019-02-14T10:57:21.534Z,1023.0
2019-02-14T10:58:23.111Z,1023.1
2019-02-14T10:59:24.677Z,1023.0
2019-02-14T11:00:26.229Z,1023.1
2019-02-14T11:01:27.875Z,1023.1
2019-02-14T11:02:29.391Z,1023.0
2019-02-14T11:03:31.876Z,1023.1
2019-02-14T11:04:33.361Z,1023.1
2019-02-14T11:05:35.567Z,1023.1
2019-02-14T11:06:36.402Z,1023.1
2019-02-14T11:07:37.906Z,1023.1
2019-02-14T11:08:39.554Z,1023.1
2019-02-14T11:09:41.124Z,1023.0
2019-02-14T11:10:42.602Z,1023.0
2019-02-14T11:11:44.090Z,1023.0
2019-02-14T11:12:45.610Z,1023.0
2019-02-14T11:13:47.159Z,1022.9
2019-02-14T11:14:48.664Z,1022.8
2019-02-14T11:15:50.149Z,1022.8
2019-02-14T11:16:51.684Z,1022.8
2019-02-14T11:17:53.392Z,1022.8
2019-02-14T11:18:54.962Z,1022.8
2019-02-14T11:19:56.426Z,1022.8
2019-02-14T11:20:58.048Z,1022.7
2019-02-14T11:21:59.555Z,1022.8
2019-02-14T11:23:01.098Z,1022.7
2019-02-14T11:24:02.576Z,1022.8
2019-02-14T11:25:04.204Z,1022.8
2019-02-14T11:26:05.717Z,1022.8
2019-02-14T11:27:07.288Z,1022.8
2019-02-14T11:28:08.791Z,1022.7
2019-02-14T11:29:10.329Z,1022.7
2019-02-14T11:30:11.874Z,1022.7
2019-02-14T11:31:13.298Z,1022.7
2019-02-14T11:32:14.877Z,1022.7
2019-02-14T11:33:16.460Z,1022.7
2019-02-14T11:34:18.063Z,1022.6
2019-02-14T11:35:19.511Z,1022.7
2019-02-14T11:36:21.116Z,1022.6
2019-02-14T11:37:22.701Z,1022.6
2019-02-14T11:38:24.197Z,1022.6
2019-02-14T11:39:25.695Z,1022.7
2019-02-14T11:40:27.138Z,1022.6
2019-02-14T11:41:28.713Z,1022.6
2019-02-14T11:42:30.280Z,1022.5
2019-02-14T11:43:31.766Z,1022.5
2019-02-14T11:44:39.599Z,1022.5
2019-02-14T11:45:34.803Z,1022.5
2019-02-14T11:46:36.307Z,1022.5
2019-02-14T11:47:37.968Z,1022.5
2019-02-14T11:48:39.530Z,1022.5
2019-02-14T11:49:41.028Z,1022.6
2019-02-14T11:50:42.588Z,1022.5
2019-02-14T11:51:44.118Z,1022.5
2019-02-14T11:52:45.706Z,1022.5
2019-02-14T11:53:47.207Z,1022.5
2019-02-14T11:54:48.768Z,1022.6
2019-02-14T11:55:50.254Z,1022.5
2019-02-14T11:56:51.962Z,1022.5
2019-02-14T11:57:53.402Z,1022.4
2019-02-14T11:58:54.934Z,1022.4
2019-02-14T11:59:56.470Z,1022.4
2019-02-14T12:00:57.951Z,1022.4
2019-02-14T12:01:59.513Z,1022.4
2019-02-14T12:03:01.016Z,1022.4
2019-02-14T12:04:02.485Z,1022.3
2019-02-14T12:05:03.985Z,1022.3
2019-02-14T12:06:05.536Z,1022.3
2019-02-14T12:07:06.970Z,1022.3
2019-02-14T12:08:09.415Z,1022.3
2019-02-14T12:09:09.928Z,1022.3
2019-02-14T12:10:13.492Z,1022.3
2019-02-14T12:11:12.918Z,1022.2
2019-02-14T12:12:14.537Z,1022.3
2019-02-14T12:13:16.143Z,1022.3
2019-02-14T12:14:17.709Z,1022.2
2019-02-14T12:15:19.237Z,1022.2
2019-02-14T12:16:20.677Z,1022.2
2019-02-14T12:17:22.201Z,1022.2
2019-02-14T12:18:24.166Z,1022.1
2019-02-14T12:19:25.352Z,1022.1
2019-02-14T12:20:26.918Z,1022.2
2019-02-14T12:21:28.456Z,1022.1
2019-02-14T12:22:29.887Z,1022.2
2019-02-14T12:23:31.495Z,1022.2
2019-02-14T12:24:32.952Z,1022.2
2019-02-14T12:25:34.451Z,1022.1
2019-02-14T12:26:36.126Z,1022.1
2019-02-14T12:27:37.593Z,1022.1
2019-02-14T12:28:39.131Z,1022.1
2019-02-14T12:29:40.693Z,1022.1
2019-02-14T12:30:42.217Z,1022.0
2019-02-14T12:31:43.710Z,1022.0
2019-02-14T12:32:45.295Z,1022.0
2019-02-14T12:33:46.851Z,1021.9
2019-02-14T12:34:48.391Z,1022.0
2019-02-14T12:35:50.002Z,1022.0
2019-02-14T12:36:51.562Z,1021.9
2019-02-14T12:37:53.144Z,1021.9
2019-02-14T12:38:54.671Z,1021.9
2019-02-14T12:39:56.016Z,1021.9
2019-02-14T12:40:57.504Z,1021.9
2019-02-14T12:41:59.058Z,1021.9
2019-02-14T12:43:00.556Z,1021.8
2019-02-14T12:44:02.108Z,1021.8
2019-02-14T12:45:03.639Z,1021.8
2019-02-14T12:46:05.128Z,1021.8
2019-02-14T12:47:06.644Z,1021.7
2019-02-14T12:48:08.103Z,1021.7
2019-02-14T12:49:09.563Z,1021.7
2019-02-14T12:50:11.046Z,1021.7
2019-02-14T12:51:12.577Z,1021.6
2019-02-14T12:52:14.090Z,1021.6
2019-02-14T12:53:15.603Z,1021.6
2019-02-14T12:54:17.149Z,1021.6
2019-02-14T12:55:18.589Z,1021.6
2019-02-14T12:56:20.101Z,1021.6
2019-02-14T12:57:21.629Z,1021.6
2019-02-14T12:58:23.065Z,1021.6
2019-02-14T12:59:24.547Z,1021.5
2019-02-14T13:00:26.083Z,1021.6
2019-02-14T13:01:27.575Z,1021.6
2019-02-14T13:02:29.180Z,1021.5
2019-02-14T13:03:30.932Z,1021.5
2019-02-14T13:04:32.476Z,1021.6
2019-02-14T13:05:34.165Z,1021.5
2019-02-14T13:06:35.826Z,1021.5
2019-02-14T13:07:37.448Z,1021.5
2019-02-14T13:08:38.998Z,1021.5
2019-02-14T13:09:40.504Z,1021.5
2019-02-14T13:10:42.000Z,1021.4
2019-02-14T13:11:43.488Z,1021.4
2019-02-14T13:12:45.021Z,1021.4
2019-02-14T13:13:50.250Z,1021.4
2019-02-14T13:14:48.036Z,1021.4
2019-02-14T13:15:49.654Z,1021.4
2019-02-14T13:16:51.225Z,1021.3
2019-02-14T13:17:52.695Z,1021.3
2019-02-14T13:18:54.195Z,1021.3